Thunderstorms From: 15-12-2017 06:00 Until: 16-12-2017 06:00 warning for: Thunderstorms Level: Yellow info button

Although rather usual in this region, locally or potentially dangerous phenomena are expected. (such as local winds, summer thunderstorms, rising streams or high waves) Be aware and pay attention to the latest weather updates, especially if you carry out activities exposed to weather or close to a stream or shoreline. 


Meteo18 Weather Cam more information Meteo18 Weather Cam


warning for Thunderstorms more information blitzortung!


Rain radar more information rain snow radar


Visit our other weather sites:

Template documentation
and downloads

And another site



Weather Underground History page Text

Daily Summary for August 28, 2016 Units:  Metric    English   Both
« Previous Day
Next Day »
Daily Weekly Monthly Yearly Custom
  High: Low: Average:
Temperature: 27.4 °C 18.6 °C 22.4 °C
Dew Point: 16.6 °C 9.9 °C 13.7 °C
Humidity: 80 % 43 % 59 %
Wind Speed: 17.7 km/h 0.0 km/h 5.7 km/h
Wind Gust: 25.7 km/h - -
Wind:- - WSW
Pressure: 1019.2 hPa 1014.8 hPa -
Precipitation: 0.0 mm    
Historical Graphs
 
 
Tabular Data for August 28, 2016
Time Temperature Dew Point Pressure Wind Wind Speed Wind Gust Humidity Rainfall Rate (Hourly)
00:02 22.3 °C 11.1 °C 1014.8 hPa Calm   3.2 km/h 49 % 0.0 mm
00:12 22.0 °C 11.1 °C 1014.8 hPa Calm     50 % 0.0 mm
00:17 22.0 °C 11.1 °C 1014.8 hPa Calm     50 % 0.0 mm
00:22 21.8 °C 11.2 °C 1014.8 hPa Calm     51 % 0.0 mm
00:32 21.6 °C 11.3 °C 1015.1 hPa Calm     52 % 0.0 mm
00:37 21.4 °C 11.1 °C 1014.8 hPa Calm     52 % 0.0 mm
00:42 21.2 °C 11.0 °C 1015.1 hPa Calm     52 % 0.0 mm
00:52 20.8 °C 10.9 °C 1015.1 hPa Calm     53 % 0.0 mm
00:57 20.7 °C 11.1 °C 1015.1 hPa Calm     54 % 0.0 mm
01:02 20.6 °C 11.2 °C 1015.1 hPa Calm     55 % 0.0 mm
01:12 20.3 °C 11.0 °C 1015.1 hPa Calm     55 % 0.0 mm
01:17 20.2 °C 11.1 °C 1015.1 hPa Calm     56 % 0.0 mm
01:22 20.2 °C 11.1 °C 1015.1 hPa Calm     56 % 0.0 mm
01:27 20.1 °C 11.0 °C 1015.1 hPa Calm     56 % 0.0 mm
01:32 20.1 °C 11.0 °C 1015.1 hPa Calm     56 % 0.0 mm
01:37 19.7 °C 10.9 °C 1015.1 hPa Calm     57 % 0.0 mm
01:42 19.6 °C 10.8 °C 1015.1 hPa Calm     57 % 0.0 mm
01:47 19.8 °C 10.8 °C 1015.1 hPa Calm     56 % 0.0 mm
01:52 20.2 °C 10.6 °C 1015.1 hPa Calm     54 % 0.0 mm
02:02 20.6 °C 10.7 °C 1015.1 hPa Calm     53 % 0.0 mm
02:07 20.4 °C 10.8 °C 1015.1 hPa Calm     54 % 0.0 mm
02:12 20.3 °C 10.7 °C 1015.1 hPa Calm     54 % 0.0 mm
02:17 20.2 °C 11.1 °C 1015.1 hPa Calm     56 % 0.0 mm
02:22 20.4 °C 10.5 °C 1015.1 hPa Calm     53 % 0.0 mm
02:32 20.3 °C 11.0 °C 1015.1 hPa Calm     55 % 0.0 mm
02:37 20.1 °C 10.8 °C 1015.1 hPa Calm     55 % 0.0 mm
02:42 20.0 °C 10.7 °C 1014.8 hPa Calm     55 % 0.0 mm
02:47 20.1 °C 10.5 °C 1014.8 hPa Calm     54 % 0.0 mm
02:52 20.1 °C 10.5 °C 1014.8 hPa Calm     54 % 0.0 mm
02:57 20.1 °C 10.5 °C 1014.8 hPa Calm     54 % 0.0 mm
03:02 19.9 °C 10.3 °C 1014.8 hPa Calm     54 % 0.0 mm
03:12 19.6 °C 10.3 °C 1014.8 hPa Calm     55 % 0.0 mm
03:17 19.4 °C 10.4 °C 1015.1 hPa Calm     56 % 0.0 mm
03:22 19.2 °C 10.5 °C 1015.1 hPa Calm     57 % 0.0 mm
03:27 19.1 °C 10.4 °C 1015.1 hPa Calm     57 % 0.0 mm
03:32 19.0 °C 10.3 °C 1015.1 hPa Calm     57 % 0.0 mm
03:42 18.7 °C 10.3 °C 1015.1 hPa Calm     58 % 0.0 mm
03:47 18.6 °C 10.2 °C 1015.1 hPa Calm     58 % 0.0 mm
03:52 18.6 °C 9.9 °C 1015.1 hPa Calm     57 % 0.0 mm
03:57 18.7 °C 10.0 °C 1015.1 hPa Calm     57 % 0.0 mm
04:02 18.8 °C 10.1 °C 1015.1 hPa Calm     57 % 0.0 mm
04:12 19.2 °C 9.9 °C 1015.1 hPa Calm     55 % 0.0 mm
04:17 19.1 °C 10.1 °C 1015.1 hPa Calm     56 % 0.0 mm
04:22 18.9 °C 9.9 °C 1015.1 hPa Calm     56 % 0.0 mm
04:32 18.6 °C 10.2 °C 1015.1 hPa Calm     58 % 0.0 mm
04:37 18.6 °C 9.9 °C 1015.1 hPa Calm     57 % 0.0 mm
04:42 18.7 °C 10.0 °C 1015.1 hPa Calm     57 % 0.0 mm
04:47 18.6 °C 9.9 °C 1015.5 hPa SW 3.2 km/h   57 % 0.0 mm
04:52 19.2 °C 10.7 °C 1015.5 hPa SW 8.0 km/h   58 % 0.0 mm
05:12 20.9 °C 11.2 °C 1015.1 hPa SW 6.4 km/h 12.9 km/h 54 % 0.0 mm
05:17 20.9 °C 11.0 °C 1015.5 hPa SW 6.4 km/h 12.9 km/h 53 % 0.0 mm
05:22 20.8 °C 11.2 °C 1015.5 hPa SSW 4.8 km/h 12.9 km/h 54 % 0.0 mm
05:32 20.4 °C 11.1 °C 1015.5 hPa Calm   9.7 km/h 55 % 0.0 mm
05:42 19.9 °C 10.6 °C 1015.5 hPa SSW 3.2 km/h 6.4 km/h 55 % 0.0 mm
05:47 19.4 °C 10.7 °C 1015.5 hPa Calm   4.8 km/h 57 % 0.0 mm
05:52 19.4 °C 11.2 °C 1015.5 hPa South 3.2 km/h 4.8 km/h 59 % 0.0 mm
06:02 19.5 °C 11.3 °C 1015.5 hPa Calm   6.4 km/h 59 % 0.0 mm
06:12 19.4 °C 10.9 °C 1015.5 hPa SSW 4.8 km/h 6.4 km/h 58 % 0.0 mm
06:17 19.6 °C 11.1 °C 1015.5 hPa SSW 3.2 km/h 6.4 km/h 58 % 0.0 mm
06:22 19.6 °C 11.6 °C 1015.5 hPa SW 4.8 km/h 6.4 km/h 60 % 0.0 mm
06:32 19.8 °C 12.6 °C 1015.8 hPa WSW 1.6 km/h 11.3 km/h 63 % 0.0 mm
06:37 19.9 °C 13.1 °C 1015.8 hPa SW 4.8 km/h 11.3 km/h 65 % 0.0 mm
06:42 19.9 °C 13.8 °C 1015.8 hPa West 1.6 km/h 12.9 km/h 68 % 0.0 mm
06:47 19.9 °C 14.0 °C 1015.5 hPa West 4.8 km/h 12.9 km/h 69 % 0.0 mm
06:52 19.9 °C 14.3 °C 1015.8 hPa West 4.8 km/h 12.9 km/h 70 % 0.0 mm
06:57 19.9 °C 14.0 °C 1015.8 hPa WSW 4.8 km/h 11.3 km/h 69 % 0.0 mm
07:02 19.4 °C 12.9 °C 1015.8 hPa SW 4.8 km/h 11.3 km/h 66 % 0.0 mm
07:07 19.3 °C 13.2 °C 1016.1 hPa SW 4.8 km/h 11.3 km/h 68 % 0.0 mm
07:12 19.1 °C 12.8 °C 1016.1 hPa SW 4.8 km/h 11.3 km/h 67 % 0.0 mm
07:17 18.9 °C 12.9 °C 1016.1 hPa South 4.8 km/h 11.3 km/h 68 % 0.0 mm
07:22 18.7 °C 12.4 °C 1016.1 hPa South 4.8 km/h 8.0 km/h 67 % 0.0 mm
07:32 18.7 °C 12.9 °C 1016.1 hPa SSW 6.4 km/h 6.4 km/h 69 % 0.0 mm
07:37 18.9 °C 13.3 °C 1016.5 hPa SSW 4.8 km/h 6.4 km/h 70 % 0.0 mm
07:42 19.1 °C 13.3 °C 1016.5 hPa SSW 3.2 km/h 8.0 km/h 69 % 0.0 mm
07:52 18.9 °C 13.3 °C 1016.5 hPa SW 9.7 km/h 9.7 km/h 70 % 0.0 mm
07:57 18.8 °C 13.2 °C 1016.5 hPa SW 4.8 km/h 9.7 km/h 70 % 0.0 mm
08:02 18.7 °C 13.1 °C 1016.8 hPa SSW 11.3 km/h 14.5 km/h 70 % 0.0 mm
08:12 18.7 °C 13.3 °C 1016.8 hPa SSW 8.0 km/h 12.9 km/h 71 % 0.0 mm
08:17 18.8 °C 13.4 °C 1016.8 hPa SW 9.7 km/h 12.9 km/h 71 % 0.0 mm
08:22 18.8 °C 13.6 °C 1016.8 hPa SSW 9.7 km/h 12.9 km/h 72 % 0.0 mm
08:27 18.8 °C 13.6 °C 1017.2 hPa SW 6.4 km/h 12.9 km/h 72 % 0.0 mm
08:32 19.0 °C 14.0 °C 1017.2 hPa SSW 6.4 km/h 12.9 km/h 73 % 0.0 mm
08:37 19.3 °C 14.5 °C 1017.2 hPa WSW 4.8 km/h 12.9 km/h 74 % 0.0 mm
08:42 19.6 °C 15.0 °C 1017.2 hPa SW 6.4 km/h 14.5 km/h 75 % 0.0 mm
08:47 19.7 °C 15.3 °C 1017.2 hPa SSE 3.2 km/h 14.5 km/h 76 % 0.0 mm
08:52 19.8 °C 15.4 °C 1017.5 hPa West 3.2 km/h 9.7 km/h 76 % 0.0 mm
08:57 19.8 °C 15.4 °C 1017.5 hPa WSW 1.6 km/h 9.7 km/h 76 % 0.0 mm
09:02 20.2 °C 16.4 °C 1017.5 hPa West 3.2 km/h 11.3 km/h 79 % 0.0 mm
09:12 20.6 °C 16.6 °C 1017.5 hPa WNW 12.9 km/h 12.9 km/h 78 % 0.0 mm
09:17 20.3 °C 16.3 °C 1017.5 hPa WSW 8.0 km/h 12.9 km/h 78 % 0.0 mm
09:22 20.2 °C 16.4 °C 1017.5 hPa WNW 4.8 km/h 19.3 km/h 79 % 0.0 mm
09:32 20.1 °C 16.5 °C 1017.5 hPa WSW 9.7 km/h 16.1 km/h 80 % 0.0 mm
09:42 20.0 °C 16.4 °C 1017.8 hPa West 8.0 km/h 12.9 km/h 80 % 0.0 mm
09:47 20.0 °C 16.2 °C 1017.8 hPa WSW 3.2 km/h 12.9 km/h 79 % 0.0 mm
09:57 20.0 °C 16.2 °C 1017.8 hPa WSW 4.8 km/h 16.1 km/h 79 % 0.0 mm
10:07 20.3 °C 16.3 °C 1017.8 hPa SW 8.0 km/h 16.1 km/h 78 % 0.0 mm
10:12 20.4 °C 16.2 °C 1018.2 hPa West 3.2 km/h 12.9 km/h 77 % 0.0 mm
10:17 20.4 °C 16.2 °C 1018.2 hPa SW 8.0 km/h 12.9 km/h 77 % 0.0 mm
10:22 20.4 °C 16.2 °C 1018.2 hPa SW 11.3 km/h 16.1 km/h 77 % 0.0 mm
10:32 20.4 °C 16.0 °C 1018.2 hPa WSW 3.2 km/h 14.5 km/h 76 % 0.0 mm
10:42 20.5 °C 16.1 °C 1018.2 hPa West 9.7 km/h 16.1 km/h 76 % 0.0 mm
10:47 20.4 °C 16.0 °C 1018.5 hPa WSW 6.4 km/h 16.1 km/h 76 % 0.0 mm
10:52 20.7 °C 16.1 °C 1018.5 hPa WSW 9.7 km/h 16.1 km/h 75 % 0.0 mm
11:02 21.1 °C 16.3 °C 1018.5 hPa SSW 3.2 km/h 12.9 km/h 74 % 0.0 mm
11:12 21.3 °C 16.0 °C 1018.5 hPa SSW 11.3 km/h 12.9 km/h 72 % 0.0 mm
11:17 21.3 °C 16.0 °C 1018.5 hPa West 6.4 km/h 12.9 km/h 72 % 0.0 mm
11:22 21.2 °C 15.9 °C 1018.5 hPa West 3.2 km/h 14.5 km/h 72 % 0.0 mm
11:32 21.8 °C 16.3 °C 1018.5 hPa SW 8.0 km/h 12.9 km/h 71 % 0.0 mm
11:42 22.1 °C 16.1 °C 1018.5 hPa SW 11.3 km/h 17.7 km/h 69 % 0.0 mm
11:47 22.0 °C 16.0 °C 1018.5 hPa West 8.0 km/h 17.7 km/h 69 % 0.0 mm
11:52 22.0 °C 16.0 °C 1018.5 hPa WSW 6.4 km/h 17.7 km/h 69 % 0.0 mm
11:57 22.4 °C 16.0 °C 1018.8 hPa WSW 12.9 km/h 17.7 km/h 67 % 0.0 mm
12:02 22.8 °C 15.9 °C 1018.8 hPa SSW 8.0 km/h 17.7 km/h 65 % 0.0 mm
12:07 23.0 °C 16.1 °C 1018.8 hPa SW 4.8 km/h 17.7 km/h 65 % 0.0 mm
12:12 22.7 °C 15.3 °C 1018.8 hPa WSW 9.7 km/h 17.7 km/h 63 % 0.0 mm
12:17 22.3 °C 15.6 °C 1018.8 hPa WNW 3.2 km/h 16.1 km/h 66 % 0.0 mm
12:22 22.2 °C 15.1 °C 1018.8 hPa SSW 9.7 km/h 17.7 km/h 64 % 0.0 mm
12:32 22.7 °C 15.3 °C 1018.5 hPa SW 12.9 km/h 16.1 km/h 63 % 0.0 mm
12:37 22.6 °C 15.4 °C 1018.5 hPa SW 11.3 km/h 16.1 km/h 64 % 0.0 mm
12:42 22.9 °C 15.7 °C 1018.5 hPa SSW 12.9 km/h 17.7 km/h 64 % 0.0 mm
12:47 23.2 °C 15.8 °C 1018.5 hPa SSW 11.3 km/h 17.7 km/h 63 % 0.0 mm
12:57 23.5 °C 15.5 °C 1018.5 hPa WNW 6.4 km/h 16.1 km/h 61 % 0.0 mm
13:02 23.8 °C 15.6 °C 1018.5 hPa SW 4.8 km/h 16.1 km/h 60 % 0.0 mm
13:12 24.0 °C 15.8 °C 1018.2 hPa West 6.4 km/h 16.1 km/h 60 % 0.0 mm
13:17 24.2 °C 15.1 °C 1018.2 hPa SW 4.8 km/h 12.9 km/h 57 % 0.0 mm
13:22 24.4 °C 15.3 °C 1018.2 hPa WSW 1.6 km/h 14.5 km/h 57 % 0.0 mm
13:32 25.0 °C 14.8 °C 1018.2 hPa WSW 6.4 km/h 14.5 km/h 53 % 0.0 mm
13:37 25.2 °C 15.5 °C 1018.2 hPa WSW 1.6 km/h 16.1 km/h 55 % 0.0 mm
13:42 25.4 °C 14.8 °C 1018.2 hPa West 3.2 km/h 16.1 km/h 52 % 0.0 mm
13:47 25.2 °C 14.0 °C 1018.2 hPa SW 9.7 km/h 16.1 km/h 50 % 0.0 mm
13:52 25.1 °C 13.9 °C 1018.2 hPa West 9.7 km/h 19.3 km/h 50 % 0.0 mm
13:57 25.1 °C 14.6 °C 1018.2 hPa NW 6.4 km/h 19.3 km/h 52 % 0.0 mm
14:02 25.0 °C 14.8 °C 1018.2 hPa SSW 17.7 km/h 19.3 km/h 53 % 0.0 mm
14:12 24.9 °C 15.0 °C 1017.8 hPa WSW 4.8 km/h 19.3 km/h 54 % 0.0 mm
14:17 25.4 °C 14.2 °C 1017.8 hPa SSW 8.0 km/h 19.3 km/h 50 % 0.0 mm
14:22 25.6 °C 14.1 °C 1017.8 hPa SW 6.4 km/h 19.3 km/h 49 % 0.0 mm
14:32 25.9 °C 13.7 °C 1017.8 hPa West 6.4 km/h 19.3 km/h 47 % 0.0 mm
14:42 25.9 °C 14.0 °C 1017.8 hPa West 6.4 km/h 19.3 km/h 48 % 0.0 mm
14:52 26.1 °C 13.9 °C 1017.8 hPa West 6.4 km/h 22.5 km/h 47 % 0.0 mm
14:57 25.8 °C 13.0 °C 1017.8 hPa NW 11.3 km/h 24.1 km/h 45 % 0.0 mm
15:02 26.1 °C 12.9 °C 1017.8 hPa West 9.7 km/h 24.1 km/h 44 % 0.0 mm
15:12 26.2 °C 13.0 °C 1017.8 hPa West 4.8 km/h 24.1 km/h 44 % 0.0 mm
15:17 26.2 °C 12.6 °C 1017.8 hPa WSW 16.1 km/h 24.1 km/h 43 % 0.0 mm
15:22 25.8 °C 12.6 °C 1017.5 hPa WSW 11.3 km/h 24.1 km/h 44 % 0.0 mm
15:32 26.0 °C 12.8 °C 1017.8 hPa West 9.7 km/h 22.5 km/h 44 % 0.0 mm
15:37 26.3 °C 13.1 °C 1017.8 hPa WSW 1.6 km/h 22.5 km/h 44 % 0.0 mm
15:42 26.4 °C 12.8 °C 1017.5 hPa WSW 17.7 km/h 22.5 km/h 43 % 0.0 mm
15:52 26.6 °C 13.3 °C 1017.8 hPa West 16.1 km/h 24.1 km/h 44 % 0.0 mm
16:02 26.6 °C 13.3 °C 1017.5 hPa West 9.7 km/h 22.5 km/h 44 % 0.0 mm
16:12 26.5 °C 13.6 °C 1017.5 hPa WNW 11.3 km/h 22.5 km/h 45 % 0.0 mm
16:22 26.5 °C 13.6 °C 1017.5 hPa WSW 6.4 km/h 20.9 km/h 45 % 0.0 mm
16:32 26.9 °C 13.6 °C 1017.5 hPa WNW 4.8 km/h 17.7 km/h 44 % 0.0 mm
16:37 27.0 °C 14.1 °C 1017.5 hPa WNW 11.3 km/h 17.7 km/h 45 % 0.0 mm
16:42 26.9 °C 14.0 °C 1017.5 hPa WSW 11.3 km/h 17.7 km/h 45 % 0.0 mm
16:47 26.9 °C 14.0 °C 1017.5 hPa WSW 4.8 km/h 17.7 km/h 45 % 0.0 mm
16:52 27.1 °C 14.5 °C 1017.5 hPa WSW 9.7 km/h 17.7 km/h 46 % 0.0 mm
16:57 27.2 °C 14.6 °C 1017.5 hPa SSW 11.3 km/h 19.3 km/h 46 % 0.0 mm
17:02 27.4 °C 14.8 °C 1017.5 hPa West 14.5 km/h 20.9 km/h 46 % 0.0 mm
17:12 27.3 °C 15.0 °C 1017.5 hPa SSW 16.1 km/h 20.9 km/h 47 % 0.0 mm
17:17 27.1 °C 14.8 °C 1017.5 hPa SW 6.4 km/h 17.7 km/h 47 % 0.0 mm
17:22 27.1 °C 15.1 °C 1017.5 hPa SW 9.7 km/h 20.9 km/h 48 % 0.0 mm
17:27 27.2 °C 15.2 °C 1017.5 hPa NW 8.0 km/h 20.9 km/h 48 % 0.0 mm
17:32 27.1 °C 15.5 °C 1017.5 hPa WNW 11.3 km/h 20.9 km/h 49 % 0.0 mm
17:37 27.2 °C 15.6 °C 1017.5 hPa SSW 1.6 km/h 19.3 km/h 49 % 0.0 mm
17:42 27.2 °C 15.6 °C 1017.5 hPa SW 9.7 km/h 19.3 km/h 49 % 0.0 mm
17:47 26.9 °C 15.6 °C 1017.5 hPa WSW 4.8 km/h 25.7 km/h 50 % 0.0 mm
17:52 26.9 °C 15.3 °C 1017.5 hPa SSE 8.0 km/h 25.7 km/h 49 % 0.0 mm
17:57 26.9 °C 15.6 °C 1017.5 hPa WSW 4.8 km/h 25.7 km/h 50 % 0.0 mm
18:02 26.8 °C 15.5 °C 1017.5 hPa SW 8.0 km/h 22.5 km/h 50 % 0.0 mm
18:12 26.7 °C 15.7 °C 1017.2 hPa West 8.0 km/h 24.1 km/h 51 % 0.0 mm
18:17 26.7 °C 15.7 °C 1017.5 hPa WSW 8.0 km/h 24.1 km/h 51 % 0.0 mm
18:22 26.7 °C 15.4 °C 1017.5 hPa WNW 11.3 km/h 24.1 km/h 50 % 0.0 mm
18:27 26.6 °C 15.6 °C 1017.2 hPa West 4.8 km/h 17.7 km/h 51 % 0.0 mm
18:32 26.6 °C 15.6 °C 1017.2 hPa WSW 12.9 km/h 17.7 km/h 51 % 0.0 mm
18:42 26.6 °C 15.6 °C 1017.2 hPa WNW 6.4 km/h 19.3 km/h 51 % 0.0 mm
18:47 26.7 °C 15.4 °C 1017.2 hPa WNW 12.9 km/h 19.3 km/h 50 % 0.0 mm
18:57 26.6 °C 15.6 °C 1017.2 hPa WNW 9.7 km/h 19.3 km/h 51 % 0.0 mm
19:02 26.4 °C 15.4 °C 1017.2 hPa West 11.3 km/h 19.3 km/h 51 % 0.0 mm
19:17 26.3 °C 15.0 °C 1017.2 hPa West 11.3 km/h 19.3 km/h 50 % 0.0 mm
19:22 26.1 °C 15.2 °C 1017.2 hPa SW 8.0 km/h 19.3 km/h 51 % 0.0 mm
19:27 25.9 °C 15.0 °C 1017.2 hPa WNW 12.9 km/h 16.1 km/h 51 % 0.0 mm
19:32 25.8 °C 15.2 °C 1017.2 hPa WNW 16.1 km/h 22.5 km/h 52 % 0.0 mm
19:42 25.6 °C 15.0 °C 1017.2 hPa WSW 8.0 km/h 22.5 km/h 52 % 0.0 mm
19:47 25.4 °C 15.1 °C 1017.2 hPa WNW 8.0 km/h 19.3 km/h 53 % 0.0 mm
19:52 25.3 °C 15.3 °C 1017.5 hPa WNW 6.4 km/h 19.3 km/h 54 % 0.0 mm
19:57 25.2 °C 15.2 °C 1017.2 hPa West 4.8 km/h 19.3 km/h 54 % 0.0 mm
20:02 25.1 °C 15.4 °C 1017.5 hPa WNW 6.4 km/h 16.1 km/h 55 % 0.0 mm
20:07 25.0 °C 15.3 °C 1017.5 hPa WNW 4.8 km/h 16.1 km/h 55 % 0.0 mm
20:12 24.9 °C 15.5 °C 1017.5 hPa WNW 8.0 km/h 16.1 km/h 56 % 0.0 mm
20:17 24.8 °C 15.4 °C 1017.5 hPa West 4.8 km/h 16.1 km/h 56 % 0.0 mm
20:22 24.8 °C 15.7 °C 1017.5 hPa West 11.3 km/h 16.1 km/h 57 % 0.0 mm
20:27 24.7 °C 15.6 °C 1017.5 hPa West 1.6 km/h 16.1 km/h 57 % 0.0 mm
20:32 24.5 °C 15.4 °C 1017.5 hPa WNW 4.8 km/h 17.7 km/h 57 % 0.0 mm
20:37 24.4 °C 15.6 °C 1017.5 hPa WSW 4.8 km/h 17.7 km/h 58 % 0.0 mm
20:42 24.3 °C 15.5 °C 1017.5 hPa West 6.4 km/h 17.7 km/h 58 % 0.0 mm
20:52 24.2 °C 15.7 °C 1017.8 hPa WNW 8.0 km/h 11.3 km/h 59 % 0.0 mm
20:57 24.2 °C 15.7 °C 1017.8 hPa West 3.2 km/h 12.9 km/h 59 % 0.0 mm
21:02 24.1 °C 15.6 °C 1017.8 hPa NW 4.8 km/h 12.9 km/h 59 % 0.0 mm
21:12 24.0 °C 15.8 °C 1017.8 hPa WNW 8.0 km/h 12.9 km/h 60 % 0.0 mm
21:18 23.9 °C 15.7 °C 1018.2 hPa WSW 11.3 km/h 17.7 km/h 60 % 0.0 mm
21:27 23.7 °C 15.5 °C 1018.2 hPa West 8.0 km/h 14.5 km/h 60 % 0.0 mm
21:32 23.6 °C 15.4 °C 1018.2 hPa West 6.4 km/h 12.9 km/h 60 % 0.0 mm
21:37 23.6 °C 15.6 °C 1018.2 hPa West 6.4 km/h 12.9 km/h 61 % 0.0 mm
21:42 23.4 °C 15.4 °C 1018.2 hPa West 1.6 km/h 12.9 km/h 61 % 0.0 mm
21:47 23.3 °C 15.4 °C 1018.5 hPa West 3.2 km/h 12.9 km/h 61 % 0.0 mm
21:52 23.3 °C 15.4 °C 1018.5 hPa WNW 9.7 km/h 9.7 km/h 61 % 0.0 mm
21:57 23.2 °C 15.3 °C 1018.5 hPa WNW 4.8 km/h 9.7 km/h 61 % 0.0 mm
22:02 23.1 °C 15.2 °C 1018.5 hPa SSW 8.0 km/h 9.7 km/h 61 % 0.0 mm
22:12 23.2 °C 15.0 °C 1018.5 hPa WSW 6.4 km/h 9.7 km/h 60 % 0.0 mm
22:17 23.1 °C 14.9 °C 1018.5 hPa West 8.0 km/h 17.7 km/h 60 % 0.0 mm
22:22 23.0 °C 14.6 °C 1018.5 hPa West 6.4 km/h 17.7 km/h 59 % 0.0 mm
22:27 22.9 °C 14.5 °C 1018.5 hPa West 8.0 km/h 17.7 km/h 59 % 0.0 mm
22:32 22.9 °C 14.5 °C 1018.5 hPa West 4.8 km/h 16.1 km/h 59 % 0.0 mm
22:37 22.8 °C 14.4 °C 1018.5 hPa WNW 3.2 km/h 16.1 km/h 59 % 0.0 mm
22:42 22.7 °C 14.3 °C 1018.5 hPa West 6.4 km/h 16.1 km/h 59 % 0.0 mm
22:47 22.6 °C 14.2 °C 1018.8 hPa WSW 11.3 km/h 16.1 km/h 59 % 0.0 mm
22:52 22.5 °C 14.1 °C 1018.8 hPa WNW 14.5 km/h 16.1 km/h 59 % 0.0 mm
22:57 22.4 °C 14.0 °C 1018.8 hPa West 6.4 km/h 19.3 km/h 59 % 0.0 mm
23:02 22.3 °C 13.9 °C 1018.8 hPa WSW 6.4 km/h 19.3 km/h 59 % 0.0 mm
23:07 22.2 °C 14.1 °C 1018.8 hPa West 4.8 km/h 17.7 km/h 60 % 0.0 mm
23:12 22.1 °C 14.0 °C 1018.8 hPa SW 8.0 km/h 17.7 km/h 60 % 0.0 mm
23:17 21.9 °C 13.8 °C 1018.8 hPa West 9.7 km/h 12.9 km/h 60 % 0.0 mm
23:22 21.8 °C 13.7 °C 1018.8 hPa SW 4.8 km/h 16.1 km/h 60 % 0.0 mm
23:27 21.8 °C 13.7 °C 1018.8 hPa SW 6.4 km/h 16.1 km/h 60 % 0.0 mm
23:32 21.7 °C 13.6 °C 1019.2 hPa WNW 3.2 km/h 20.9 km/h 60 % 0.0 mm
23:37 21.7 °C 13.3 °C 1018.8 hPa West 4.8 km/h 20.9 km/h 59 % 0.0 mm
23:42 21.6 °C 13.5 °C 1019.2 hPa West 4.8 km/h 20.9 km/h 60 % 0.0 mm
23:52 21.3 °C 13.2 °C 1019.2 hPa WSW 3.2 km/h 19.3 km/h 60 % 0.0 mm
Meteo18
Compliments of Weather Underground - 4 mb

Script developed by  Jim McMurry - jmcmurry@mwt.net Adapted for the template by  Wim van der Kuil - Leuven-Template.eu

You find our weather info also at:

European Weather Network

Weather Underground

Equipment we use:

Weather-station
Davis Vue

Weather-program
Meteohub

Weather-server
Raspberry PI 2 B+

Provider
1 and 1

Davis Vue

Meteohub

Raspberry PI 2 B+

1 and 1